sensor_id;sensor_type;location;lat;lon;timestamp;temperature;humidity
55173;DHT22;41061;52.822;6.860;2023-03-11T05:31:46;-2.40;99.90
55173;DHT22;41061;52.822;6.860;2023-03-11T05:34:13;-2.60;99.90
55173;DHT22;41061;52.822;6.860;2023-03-11T05:36:38;-2.80;99.90
55173;DHT22;41061;52.822;6.860;2023-03-11T05:39:04;-2.90;99.90
55173;DHT22;41061;52.822;6.860;2023-03-11T05:41:30;-2.70;99.90
55173;DHT22;41061;52.822;6.860;2023-03-11T05:43:56;-3.00;99.90
55173;DHT22;41061;52.822;6.860;2023-03-11T05:46:21;-2.90;99.90
55173;DHT22;41061;52.822;6.860;2023-03-11T05:48:47;-2.90;99.90
55173;DHT22;41061;52.822;6.860;2023-03-11T05:51:13;-3.00;99.90
55173;DHT22;41061;52.822;6.860;2023-03-11T05:53:42;-3.00;99.90
55173;DHT22;41061;52.822;6.860;2023-03-11T05:56:16;-2.90;99.90
55173;DHT22;41061;52.822;6.860;2023-03-11T05:58:42;-3.10;99.90
55173;DHT22;41061;52.822;6.860;2023-03-11T06:01:09;-3.10;99.90
55173;DHT22;41061;52.822;6.860;2023-03-11T06:03:36;-3.20;99.90
55173;DHT22;41061;52.822;6.860;2023-03-11T06:06:03;-3.20;99.90
55173;DHT22;41061;52.822;6.860;2023-03-11T06:08:29;-3.50;99.90
55173;DHT22;41061;52.822;6.860;2023-03-11T06:11:04;-3.30;99.90
55173;DHT22;41061;52.822;6.860;2023-03-11T06:13:30;-3.20;99.90
55173;DHT22;41061;52.822;6.860;2023-03-11T06:15:56;-3.20;99.90
55173;DHT22;41061;52.822;6.860;2023-03-11T06:18:21;-2.20;99.90
55173;DHT22;41061;52.822;6.860;2023-03-11T06:20:48;-3.10;99.90
55173;DHT22;41061;52.822;6.860;2023-03-11T06:23:13;-3.00;99.90
55173;DHT22;41061;52.822;6.860;2023-03-11T06:25:39;-3.10;99.90
55173;DHT22;41061;52.822;6.860;2023-03-11T06:28:05;-3.10;99.90
55173;DHT22;41061;52.822;6.860;2023-03-11T06:30:31;-2.90;99.90
55173;DHT22;41061;52.822;6.860;2023-03-11T06:32:56;-3.00;99.90
55173;DHT22;41061;52.822;6.860;2023-03-11T06:35:22;-2.90;99.90
55173;DHT22;41061;52.822;6.860;2023-03-11T06:37:48;-2.90;99.90
55173;DHT22;41061;52.822;6.860;2023-03-11T06:40:14;-2.90;99.90
55173;DHT22;41061;52.822;6.860;2023-03-11T06:42:40;-2.70;99.90
55173;DHT22;41061;52.822;6.860;2023-03-11T06:45:06;-2.80;99.90
55173;DHT22;41061;52.822;6.860;2023-03-11T06:47:31;-2.70;99.90
55173;DHT22;41061;52.822;6.860;2023-03-11T06:49:57;-2.80;99.90
55173;DHT22;41061;52.822;6.860;2023-03-11T06:52:23;-2.70;99.90
55173;DHT22;41061;52.822;6.860;2023-03-11T06:54:48;-2.60;99.90
55173;DHT22;41061;52.822;6.860;2023-03-11T06:57:15;-2.50;99.90
55173;DHT22;41061;52.822;6.860;2023-03-11T06:59:40;-2.60;99.90
55173;DHT22;41061;52.822;6.860;2023-03-11T07:02:09;-2.50;99.90
55173;DHT22;41061;52.822;6.860;2023-03-11T07:04:37;-2.40;99.90
55173;DHT22;41061;52.822;6.860;2023-03-11T07:07:03;-2.30;99.90
55173;DHT22;41061;52.822;6.860;2023-03-11T07:09:28;-2.30;99.90
55173;DHT22;41061;52.822;6.860;2023-03-11T07:11:54;-2.20;99.90
55173;DHT22;41061;52.822;6.860;2023-03-11T07:14:20;-2.10;99.90
55173;DHT22;41061;52.822;6.860;2023-03-11T07:16:46;-2.00;99.90
55173;DHT22;41061;52.822;6.860;2023-03-11T07:19:12;-2.00;99.90
55173;DHT22;41061;52.822;6.860;2023-03-11T07:21:40;-1.90;99.90
55173;DHT22;41061;52.822;6.860;2023-03-11T07:24:06;-1.80;99.90
55173;DHT22;41061;52.822;6.860;2023-03-11T07:26:33;-1.70;99.90
55173;DHT22;41061;52.822;6.860;2023-03-11T07:29:00;-1.60;99.90
55173;DHT22;41061;52.822;6.860;2023-03-11T07:31:27;-1.60;99.90
55173;DHT22;41061;52.822;6.860;2023-03-11T07:33:55;-1.50;99.90
55173;DHT22;41061;52.822;6.860;2023-03-11T07:36:22;-1.40;99.90
55173;DHT22;41061;52.822;6.860;2023-03-11T07:38:54;-1.30;99.90
55173;DHT22;41061;52.822;6.860;2023-03-11T07:41:20;-1.20;99.90
55173;DHT22;41061;52.822;6.860;2023-03-11T07:43:45;-1.10;99.90
55173;DHT22;41061;52.822;6.860;2023-03-11T07:46:13;-1.00;99.90
55173;DHT22;41061;52.822;6.860;2023-03-11T07:48:41;-0.90;99.90
55173;DHT22;41061;52.822;6.860;2023-03-11T07:51:10;-0.80;99.90
55173;DHT22;41061;52.822;6.860;2023-03-11T07:53:37;-0.60;99.90
55173;DHT22;41061;52.822;6.860;2023-03-11T07:56:03;-0.50;99.90
55173;DHT22;41061;52.822;6.860;2023-03-11T07:58:29;-0.40;99.90
55173;DHT22;41061;52.822;6.860;2023-03-11T08:00:55;-0.30;99.90
55173;DHT22;41061;52.822;6.860;2023-03-11T08:03:24;-0.20;99.90
55173;DHT22;41061;52.822;6.860;2023-03-11T08:05:50;-0.10;99.90
55173;DHT22;41061;52.822;6.860;2023-03-11T08:08:16;0.00;99.90
55173;DHT22;41061;52.822;6.860;2023-03-11T08:10:42;0.20;99.90
55173;DHT22;41061;52.822;6.860;2023-03-11T08:13:08;0.30;99.90
55173;DHT22;41061;52.822;6.860;2023-03-11T08:15:35;0.40;99.90
55173;DHT22;41061;52.822;6.860;2023-03-11T08:18:00;0.60;99.90
55173;DHT22;41061;52.822;6.860;2023-03-11T08:20:26;0.80;99.90
55173;DHT22;41061;52.822;6.860;2023-03-11T08:22:52;0.90;99.90
55173;DHT22;41061;52.822;6.860;2023-03-11T08:25:18;1.20;99.90
55173;DHT22;41061;52.822;6.860;2023-03-11T08:27:44;1.00;99.90
55173;DHT22;41061;52.822;6.860;2023-03-11T08:30:10;1.10;99.90
55173;DHT22;41061;52.822;6.860;2023-03-11T08:32:36;1.20;99.90
55173;DHT22;41061;52.822;6.860;2023-03-11T08:35:02;1.30;99.90
55173;DHT22;41061;52.822;6.860;2023-03-11T08:37:28;1.40;99.90
55173;DHT22;41061;52.822;6.860;2023-03-11T08:39:53;1.60;99.90
55173;DHT22;41061;52.822;6.860;2023-03-11T08:42:19;1.70;99.90
55173;DHT22;41061;52.822;6.860;2023-03-11T08:44:45;1.80;99.90
55173;DHT22;41061;52.822;6.860;2023-03-11T08:47:11;1.80;99.90
55173;DHT22;41061;52.822;6.860;2023-03-11T08:49:37;1.90;99.90
55173;DHT22;41061;52.822;6.860;2023-03-11T08:52:03;2.00;99.90
55173;DHT22;41061;52.822;6.860;2023-03-11T08:54:30;2.00;99.90
55173;DHT22;41061;52.822;6.860;2023-03-11T08:56:56;2.10;99.90
55173;DHT22;41061;52.822;6.860;2023-03-11T08:59:23;2.20;99.90
55173;DHT22;41061;52.822;6.860;2023-03-11T09:01:48;2.30;99.90
55173;DHT22;41061;52.822;6.860;2023-03-11T09:04:14;2.50;99.90
55173;DHT22;41061;52.822;6.860;2023-03-11T09:06:43;2.60;99.90
55173;DHT22;41061;52.822;6.860;2023-03-11T09:09:12;2.80;99.90
55173;DHT22;41061;52.822;6.860;2023-03-11T09:11:38;2.90;99.90
55173;DHT22;41061;52.822;6.860;2023-03-11T09:14:04;3.00;99.90
55173;DHT22;41061;52.822;6.860;2023-03-11T09:16:30;3.40;99.90
55173;DHT22;41061;52.822;6.860;2023-03-11T09:36:18;4.20;99.90
55173;DHT22;41061;52.822;6.860;2023-03-11T09:38:46;4.20;99.90
55173;DHT22;41061;52.822;6.860;2023-03-11T09:44:27;4.50;99.90
55173;DHT22;41061;52.822;6.860;2023-03-11T09:52:50;4.80;99.90
55173;DHT22;41061;52.822;6.860;2023-03-11T09:57:52;5.10;99.90
55173;DHT22;41061;52.822;6.860;2023-03-11T10:00:19;5.20;99.90
55173;DHT22;41061;52.822;6.860;2023-03-11T10:02:48;5.30;99.90
55173;DHT22;41061;52.822;6.860;2023-03-11T10:05:32;5.30;99.90
55173;DHT22;41061;52.822;6.860;2023-03-11T10:08:28;5.30;99.90
55173;DHT22;41061;52.822;6.860;2023-03-11T10:11:17;5.20;99.90
55173;DHT22;41061;52.822;6.860;2023-03-11T10:13:52;5.20;99.90
55173;DHT22;41061;52.822;6.860;2023-03-11T10:19:34;5.30;99.90
55173;DHT22;41061;52.822;6.860;2023-03-11T10:22:24;5.20;99.90
55173;DHT22;41061;52.822;6.860;2023-03-11T10:25:01;5.30;99.90
55173;DHT22;41061;52.822;6.860;2023-03-11T10:27:42;5.30;99.90
55173;DHT22;41061;52.822;6.860;2023-03-11T10:30:32;5.50;99.90
55173;DHT22;41061;52.822;6.860;2023-03-11T10:35:36;5.60;99.90
55173;DHT22;41061;52.822;6.860;2023-03-11T10:38:27;5.70;99.90
55173;DHT22;41061;52.822;6.860;2023-03-11T10:40:58;5.60;99.90
55173;DHT22;41061;52.822;6.860;2023-03-11T10:43:44;5.70;99.90
55173;DHT22;41061;52.822;6.860;2023-03-11T10:46:27;5.60;99.90
55173;DHT22;41061;52.822;6.860;2023-03-11T10:48:54;5.70;99.90
55173;DHT22;41061;52.822;6.860;2023-03-11T10:51:21;5.70;99.90
55173;DHT22;41061;52.822;6.860;2023-03-11T10:53:56;5.70;99.90
55173;DHT22;41061;52.822;6.860;2023-03-11T10:56:34;5.70;99.90
55173;DHT22;41061;52.822;6.860;2023-03-11T10:59:02;5.70;99.90
55173;DHT22;41061;52.822;6.860;2023-03-11T11:01:28;5.70;99.90
55173;DHT22;41061;52.822;6.860;2023-03-11T11:03:56;5.80;99.90
55173;DHT22;41061;52.822;6.860;2023-03-11T11:06:29;5.80;99.90
55173;DHT22;41061;52.822;6.860;2023-03-11T11:09:21;6.00;99.90
55173;DHT22;41061;52.822;6.860;2023-03-11T11:12:14;6.00;99.90
55173;DHT22;41061;52.822;6.860;2023-03-11T11:14:41;6.20;99.90
55173;DHT22;41061;52.822;6.860;2023-03-11T11:17:22;6.10;99.90
55173;DHT22;41061;52.822;6.860;2023-03-11T11:19:49;6.20;99.90
55173;DHT22;41061;52.822;6.860;2023-03-11T11:22:18;6.40;99.90
55173;DHT22;41061;52.822;6.860;2023-03-11T11:24:45;6.40;99.90
55173;DHT22;41061;52.822;6.860;2023-03-11T11:27:21;6.40;99.90
55173;DHT22;41061;52.822;6.860;2023-03-11T11:30:01;6.50;99.90
55173;DHT22;41061;52.822;6.860;2023-03-11T11:32:27;6.60;99.90
55173;DHT22;41061;52.822;6.860;2023-03-11T11:37:19;6.70;99.90
55173;DHT22;41061;52.822;6.860;2023-03-11T11:39:50;6.60;99.90
55173;DHT22;41061;52.822;6.860;2023-03-11T11:42:18;6.60;99.90
55173;DHT22;41061;52.822;6.860;2023-03-11T11:44:51;6.70;99.90
55173;DHT22;41061;52.822;6.860;2023-03-11T11:47:38;6.80;99.90
55173;DHT22;41061;52.822;6.860;2023-03-11T11:50:13;6.90;99.90
55173;DHT22;41061;52.822;6.860;2023-03-11T11:52:45;7.10;99.90
55173;DHT22;41061;52.822;6.860;2023-03-11T11:55:28;6.90;99.90
55173;DHT22;41061;52.822;6.860;2023-03-11T11:57:55;7.00;99.90
55173;DHT22;41061;52.822;6.860;2023-03-11T12:00:27;7.00;99.90
55173;DHT22;41061;52.822;6.860;2023-03-11T16:55:07;4.50;99.90
55173;DHT22;41061;52.822;6.860;2023-03-11T16:57:33;4.40;99.90
55173;DHT22;41061;52.822;6.860;2023-03-11T16:59:59;4.30;99.90
55173;DHT22;41061;52.822;6.860;2023-03-11T17:02:24;4.30;99.90
55173;DHT22;41061;52.822;6.860;2023-03-11T17:04:50;4.30;99.90
55173;DHT22;41061;52.822;6.860;2023-03-11T17:09:44;4.10;99.90
55173;DHT22;41061;52.822;6.860;2023-03-11T17:12:10;4.40;99.90
55173;DHT22;41061;52.822;6.860;2023-03-11T17:14:37;4.20;99.90
55173;DHT22;41061;52.822;6.860;2023-03-11T17:17:03;4.00;99.90
55173;DHT22;41061;52.822;6.860;2023-03-11T17:19:30;4.00;99.90
55173;DHT22;41061;52.822;6.860;2023-03-11T17:21:55;4.00;99.90
55173;DHT22;41061;52.822;6.860;2023-03-11T17:24:22;3.80;99.90
55173;DHT22;41061;52.822;6.860;2023-03-11T17:26:48;3.90;99.90
55173;DHT22;41061;52.822;6.860;2023-03-11T17:29:13;3.80;99.90
55173;DHT22;41061;52.822;6.860;2023-03-11T17:31:39;3.80;99.90
55173;DHT22;41061;52.822;6.860;2023-03-11T17:34:05;3.70;99.90
55173;DHT22;41061;52.822;6.860;2023-03-11T17:36:31;3.70;99.90
55173;DHT22;41061;52.822;6.860;2023-03-11T17:38:56;3.70;99.90
55173;DHT22;41061;52.822;6.860;2023-03-11T17:41:22;3.70;99.90
55173;DHT22;41061;52.822;6.860;2023-03-11T17:43:48;3.60;99.90
55173;DHT22;41061;52.822;6.860;2023-03-11T17:46:15;3.60;99.90
55173;DHT22;41061;52.822;6.860;2023-03-11T17:48:42;3.60;99.90
55173;DHT22;41061;52.822;6.860;2023-03-11T17:51:11;3.60;99.90
55173;DHT22;41061;52.822;6.860;2023-03-11T17:53:38;3.60;99.90
55173;DHT22;41061;52.822;6.860;2023-03-11T17:56:05;3.60;99.90
55173;DHT22;41061;52.822;6.860;2023-03-11T17:58:32;3.60;99.90
55173;DHT22;41061;52.822;6.860;2023-03-11T18:01:01;3.60;99.90
55173;DHT22;41061;52.822;6.860;2023-03-11T18:03:27;3.50;99.90
55173;DHT22;41061;52.822;6.860;2023-03-11T18:05:57;3.60;99.90
55173;DHT22;41061;52.822;6.860;2023-03-11T18:08:24;3.60;99.90
55173;DHT22;41061;52.822;6.860;2023-03-11T18:10:56;3.60;99.90
55173;DHT22;41061;52.822;6.860;2023-03-11T18:13:22;3.60;99.90
55173;DHT22;41061;52.822;6.860;2023-03-11T18:15:58;3.50;99.90
55173;DHT22;41061;52.822;6.860;2023-03-11T18:18:24;3.50;99.90
55173;DHT22;41061;52.822;6.860;2023-03-11T18:20:50;3.60;99.90
55173;DHT22;41061;52.822;6.860;2023-03-11T18:23:16;3.50;99.90
55173;DHT22;41061;52.822;6.860;2023-03-11T18:25:42;3.50;99.90
55173;DHT22;41061;52.822;6.860;2023-03-11T18:28:07;3.40;99.90
55173;DHT22;41061;52.822;6.860;2023-03-11T18:30:37;3.50;99.90
55173;DHT22;41061;52.822;6.860;2023-03-11T18:33:02;3.60;99.90
55173;DHT22;41061;52.822;6.860;2023-03-11T18:35:28;3.50;99.90
55173;DHT22;41061;52.822;6.860;2023-03-11T18:37:54;3.50;99.90
55173;DHT22;41061;52.822;6.860;2023-03-11T18:40:20;3.50;99.90
55173;DHT22;41061;52.822;6.860;2023-03-11T18:42:45;3.40;99.90
55173;DHT22;41061;52.822;6.860;2023-03-11T18:45:11;3.40;99.90
55173;DHT22;41061;52.822;6.860;2023-03-11T18:47:38;3.40;99.90
55173;DHT22;41061;52.822;6.860;2023-03-11T18:50:04;3.40;99.90
55173;DHT22;41061;52.822;6.860;2023-03-11T18:52:30;3.40;99.90
55173;DHT22;41061;52.822;6.860;2023-03-11T18:54:56;3.30;99.90
55173;DHT22;41061;52.822;6.860;2023-03-11T18:57:21;3.30;99.90
55173;DHT22;41061;52.822;6.860;2023-03-11T18:59:47;3.20;99.90
55173;DHT22;41061;52.822;6.860;2023-03-11T19:02:16;3.20;99.90
55173;DHT22;41061;52.822;6.860;2023-03-11T19:04:42;3.20;99.90
55173;DHT22;41061;52.822;6.860;2023-03-11T19:07:08;3.10;99.90
55173;DHT22;41061;52.822;6.860;2023-03-11T19:09:34;3.00;99.90
55173;DHT22;41061;52.822;6.860;2023-03-11T19:11:59;3.00;99.90
55173;DHT22;41061;52.822;6.860;2023-03-11T19:14:25;2.90;99.90
55173;DHT22;41061;52.822;6.860;2023-03-11T19:16:51;2.90;99.90
55173;DHT22;41061;52.822;6.860;2023-03-11T19:19:17;2.80;99.90
55173;DHT22;41061;52.822;6.860;2023-03-11T19:21:43;2.80;99.90
55173;DHT22;41061;52.822;6.860;2023-03-11T19:24:10;2.80;99.90
55173;DHT22;41061;52.822;6.860;2023-03-11T19:26:35;2.70;99.90
55173;DHT22;41061;52.822;6.860;2023-03-11T19:29:02;2.70;99.90
55173;DHT22;41061;52.822;6.860;2023-03-11T19:31:28;2.60;99.90
55173;DHT22;41061;52.822;6.860;2023-03-11T19:33:53;2.60;99.90
55173;DHT22;41061;52.822;6.860;2023-03-11T19:36:19;2.50;99.90
55173;DHT22;41061;52.822;6.860;2023-03-11T19:38:45;2.50;99.90
55173;DHT22;41061;52.822;6.860;2023-03-11T19:41:14;2.50;99.90
55173;DHT22;41061;52.822;6.860;2023-03-11T19:43:43;2.50;99.90
55173;DHT22;41061;52.822;6.860;2023-03-11T19:46:11;2.50;99.90
55173;DHT22;41061;52.822;6.860;2023-03-11T19:48:38;2.50;99.90
55173;DHT22;41061;52.822;6.860;2023-03-11T19:51:04;2.40;99.90
55173;DHT22;41061;52.822;6.860;2023-03-11T19:53:33;2.30;99.90
55173;DHT22;41061;52.822;6.860;2023-03-11T19:56:00;2.30;99.90
55173;DHT22;41061;52.822;6.860;2023-03-11T19:58:27;2.20;99.90
55173;DHT22;41061;52.822;6.860;2023-03-11T20:00:53;2.30;99.90
55173;DHT22;41061;52.822;6.860;2023-03-11T20:03:20;2.10;99.90
55173;DHT22;41061;52.822;6.860;2023-03-11T20:05:47;2.30;99.90
55173;DHT22;41061;52.822;6.860;2023-03-11T20:08:17;2.20;99.90
55173;DHT22;41061;52.822;6.860;2023-03-11T20:10:46;2.10;99.90
55173;DHT22;41061;52.822;6.860;2023-03-11T20:13:13;2.00;99.90
55173;DHT22;41061;52.822;6.860;2023-03-11T20:15:39;1.90;99.90
55173;DHT22;41061;52.822;6.860;2023-03-11T20:18:05;1.80;99.90
55173;DHT22;41061;52.822;6.860;2023-03-11T20:20:32;1.90;99.90
55173;DHT22;41061;52.822;6.860;2023-03-11T20:22:59;1.70;99.90
55173;DHT22;41061;52.822;6.860;2023-03-11T20:25:25;1.70;99.90
55173;DHT22;41061;52.822;6.860;2023-03-11T20:27:54;1.70;99.90
55173;DHT22;41061;52.822;6.860;2023-03-11T20:30:19;1.60;99.90
55173;DHT22;41061;52.822;6.860;2023-03-11T20:32:46;1.50;99.90
55173;DHT22;41061;52.822;6.860;2023-03-11T20:35:13;1.50;99.90
55173;DHT22;41061;52.822;6.860;2023-03-11T20:37:42;1.50;99.90
55173;DHT22;41061;52.822;6.860;2023-03-11T20:40:09;1.50;99.90
55173;DHT22;41061;52.822;6.860;2023-03-11T20:42:38;1.40;99.90
55173;DHT22;41061;52.822;6.860;2023-03-11T20:45:05;1.40;99.90
55173;DHT22;41061;52.822;6.860;2023-03-11T20:47:31;1.40;99.90
55173;DHT22;41061;52.822;6.860;2023-03-11T20:49:57;1.30;99.90
55173;DHT22;41061;52.822;6.860;2023-03-11T20:52:23;1.30;99.90
55173;DHT22;41061;52.822;6.860;2023-03-11T20:54:49;1.30;99.90
55173;DHT22;41061;52.822;6.860;2023-03-11T20:57:15;1.20;99.90
55173;DHT22;41061;52.822;6.860;2023-03-11T20:59:40;1.20;99.90
55173;DHT22;41061;52.822;6.860;2023-03-11T21:02:09;1.20;99.90
55173;DHT22;41061;52.822;6.860;2023-03-11T21:04:35;1.20;99.90
55173;DHT22;41061;52.822;6.860;2023-03-11T21:07:05;1.10;99.90
55173;DHT22;41061;52.822;6.860;2023-03-11T21:09:31;1.00;99.90
55173;DHT22;41061;52.822;6.860;2023-03-11T21:11:57;1.00;99.90
55173;DHT22;41061;52.822;6.860;2023-03-11T21:14:22;1.00;99.90
55173;DHT22;41061;52.822;6.860;2023-03-11T21:16:48;1.10;99.90
55173;DHT22;41061;52.822;6.860;2023-03-11T21:19:14;0.90;99.90
55173;DHT22;41061;52.822;6.860;2023-03-11T21:21:40;1.00;99.90
55173;DHT22;41061;52.822;6.860;2023-03-11T21:24:06;0.90;99.90
55173;DHT22;41061;52.822;6.860;2023-03-11T21:26:32;0.90;99.90
55173;DHT22;41061;52.822;6.860;2023-03-11T21:28:58;0.80;99.90
55173;DHT22;41061;52.822;6.860;2023-03-11T21:31:24;0.80;99.90
55173;DHT22;41061;52.822;6.860;2023-03-11T21:33:55;0.80;99.90
55173;DHT22;41061;52.822;6.860;2023-03-11T21:36:21;0.80;99.90
55173;DHT22;41061;52.822;6.860;2023-03-11T21:38:47;0.80;99.90
55173;DHT22;41061;52.822;6.860;2023-03-11T21:41:21;0.70;99.90
55173;DHT22;41061;52.822;6.860;2023-03-11T21:43:51;0.70;99.90
55173;DHT22;41061;52.822;6.860;2023-03-11T21:46:20;0.70;99.90
55173;DHT22;41061;52.822;6.860;2023-03-11T21:48:47;0.70;99.90
55173;DHT22;41061;52.822;6.860;2023-03-11T21:51:14;0.60;99.90
55173;DHT22;41061;52.822;6.860;2023-03-11T21:53:41;0.70;99.90
55173;DHT22;41061;52.822;6.860;2023-03-11T21:56:06;0.60;99.90
55173;DHT22;41061;52.822;6.860;2023-03-11T21:58:32;0.60;99.90
55173;DHT22;41061;52.822;6.860;2023-03-11T22:00:59;0.60;99.90
55173;DHT22;41061;52.822;6.860;2023-03-11T22:03:25;0.50;99.90
55173;DHT22;41061;52.822;6.860;2023-03-11T22:05:58;0.50;99.90
55173;DHT22;41061;52.822;6.860;2023-03-11T22:08:24;0.50;99.90
55173;DHT22;41061;52.822;6.860;2023-03-11T22:10:50;0.50;99.90
55173;DHT22;41061;52.822;6.860;2023-03-11T22:13:16;0.50;99.90
55173;DHT22;41061;52.822;6.860;2023-03-11T22:15:42;0.40;99.90
55173;DHT22;41061;52.822;6.860;2023-03-11T22:18:07;0.50;99.90
55173;DHT22;41061;52.822;6.860;2023-03-11T22:20:33;0.60;99.90
55173;DHT22;41061;52.822;6.860;2023-03-11T22:22:59;0.40;99.90
